sensor_id;sensor_type;location;lat;lon;timestamp;P1;P2;P0
38451;PMS5003;24231;52.514;13.438;2023-06-22T00:02:07;16;15;
38451;PMS5003;24231;52.514;13.438;2023-06-22T00:04:35;11;11;
38451;PMS5003;24231;52.514;13.438;2023-06-22T00:07:02;12;11;
38451;PMS5003;24231;52.514;13.438;2023-06-22T00:09:28;10;9;
38451;PMS5003;24231;52.514;13.438;2023-06-22T00:12:01;11;8;
38451;PMS5003;24231;52.514;13.438;2023-06-22T00:14:29;11;11;
38451;PMS5003;24231;52.514;13.438;2023-06-22T00:16:57;15;12;
38451;PMS5003;24231;52.514;13.438;2023-06-22T00:19:24;13;11;
38451;PMS5003;24231;52.514;13.438;2023-06-22T00:21:52;11;8;
38451;PMS5003;24231;52.514;13.438;2023-06-22T00:24:19;15;13;
38451;PMS5003;24231;52.514;13.438;2023-06-22T00:26:47;13;12;
38451;PMS5003;24231;52.514;13.438;2023-06-22T00:29:15;12;9;
38451;PMS5003;24231;52.514;13.438;2023-06-22T00:31:42;12;11;
38451;PMS5003;24231;52.514;13.438;2023-06-22T00:34:09;16;10;
38451;PMS5003;24231;52.514;13.438;2023-06-22T00:36:37;12;12;
38451;PMS5003;24231;52.514;13.438;2023-06-22T00:39:04;13;13;
38451;PMS5003;24231;52.514;13.438;2023-06-22T00:41:31;19;14;
38451;PMS5003;24231;52.514;13.438;2023-06-22T00:43:58;15;12;
38451;PMS5003;24231;52.514;13.438;2023-06-22T00:46:28;13;13;
38451;PMS5003;24231;52.514;13.438;2023-06-22T00:48:55;21;14;
38451;PMS5003;24231;52.514;13.438;2023-06-22T00:51:22;13;11;
38451;PMS5003;24231;52.514;13.438;2023-06-22T00:53:50;9;8;
38451;PMS5003;24231;52.514;13.438;2023-06-22T00:56:17;12;11;
38451;PMS5003;24231;52.514;13.438;2023-06-22T00:58:44;14;13;
38451;PMS5003;24231;52.514;13.438;2023-06-22T01:01:12;14;13;
38451;PMS5003;24231;52.514;13.438;2023-06-22T01:03:39;20;18;
38451;PMS5003;24231;52.514;13.438;2023-06-22T01:06:06;10;10;
38451;PMS5003;24231;52.514;13.438;2023-06-22T01:08:38;13;12;
38451;PMS5003;24231;52.514;13.438;2023-06-22T01:11:12;11;11;
38451;PMS5003;24231;52.514;13.438;2023-06-22T01:13:49;15;13;
38451;PMS5003;24231;52.514;13.438;2023-06-22T01:16:25;18;18;
38451;PMS5003;24231;52.514;13.438;2023-06-22T01:19:00;18;16;
38451;PMS5003;24231;52.514;13.438;2023-06-22T01:21:35;14;11;
38451;PMS5003;24231;52.514;13.438;2023-06-22T01:24:08;16;13;
38451;PMS5003;24231;52.514;13.438;2023-06-22T01:26:47;14;11;
38451;PMS5003;24231;52.514;13.438;2023-06-22T01:29:27;14;12;
38451;PMS5003;24231;52.514;13.438;2023-06-22T01:31:55;13;12;
38451;PMS5003;24231;52.514;13.438;2023-06-22T01:34:24;17;13;
38451;PMS5003;24231;52.514;13.438;2023-06-22T01:36:52;19;13;
38451;PMS5003;24231;52.514;13.438;2023-06-22T01:39:19;20;15;
38451;PMS5003;24231;52.514;13.438;2023-06-22T01:41:48;15;14;
38451;PMS5003;24231;52.514;13.438;2023-06-22T01:44:16;11;11;
38451;PMS5003;24231;52.514;13.438;2023-06-22T01:46:44;18;16;
38451;PMS5003;24231;52.514;13.438;2023-06-22T01:49:12;18;16;
38451;PMS5003;24231;52.514;13.438;2023-06-22T01:51:47;13;10;
38451;PMS5003;24231;52.514;13.438;2023-06-22T01:54:14;15;14;
38451;PMS5003;24231;52.514;13.438;2023-06-22T01:56:41;14;13;
38451;PMS5003;24231;52.514;13.438;2023-06-22T01:59:11;14;14;
38451;PMS5003;24231;52.514;13.438;2023-06-22T02:01:47;22;16;
38451;PMS5003;24231;52.514;13.438;2023-06-22T02:04:20;13;13;
38451;PMS5003;24231;52.514;13.438;2023-06-22T02:06:54;15;13;
38451;PMS5003;24231;52.514;13.438;2023-06-22T02:09:25;16;15;
38451;PMS5003;24231;52.514;13.438;2023-06-22T02:11:57;19;17;
38451;PMS5003;24231;52.514;13.438;2023-06-22T02:14:26;16;16;
38451;PMS5003;24231;52.514;13.438;2023-06-22T02:16:55;18;16;
38451;PMS5003;24231;52.514;13.438;2023-06-22T02:19:23;11;11;
38451;PMS5003;24231;52.514;13.438;2023-06-22T02:21:51;19;16;
38451;PMS5003;24231;52.514;13.438;2023-06-22T02:24:18;23;18;
38451;PMS5003;24231;52.514;13.438;2023-06-22T02:26:45;17;15;
38451;PMS5003;24231;52.514;13.438;2023-06-22T02:29:17;15;15;
38451;PMS5003;24231;52.514;13.438;2023-06-22T02:31:44;20;17;
38451;PMS5003;24231;52.514;13.438;2023-06-22T02:34:12;16;16;
38451;PMS5003;24231;52.514;13.438;2023-06-22T02:36:38;17;16;
38451;PMS5003;24231;52.514;13.438;2023-06-22T02:39:06;19;17;
38451;PMS5003;24231;52.514;13.438;2023-06-22T02:41:33;16;14;
38451;PMS5003;24231;52.514;13.438;2023-06-22T02:44:00;20;17;
38451;PMS5003;24231;52.514;13.438;2023-06-22T02:46:27;14;14;
38451;PMS5003;24231;52.514;13.438;2023-06-22T02:48:55;20;20;
38451;PMS5003;24231;52.514;13.438;2023-06-22T02:51:22;17;16;
38451;PMS5003;24231;52.514;13.438;2023-06-22T02:53:49;16;15;
38451;PMS5003;24231;52.514;13.438;2023-06-22T02:56:16;19;16;
38451;PMS5003;24231;52.514;13.438;2023-06-22T02:58:43;26;19;
38451;PMS5003;24231;52.514;13.438;2023-06-22T03:01:21;16;14;
38451;PMS5003;24231;52.514;13.438;2023-06-22T03:03:48;19;15;
38451;PMS5003;24231;52.514;13.438;2023-06-22T03:06:19;16;15;
38451;PMS5003;24231;52.514;13.438;2023-06-22T03:08:46;15;14;
38451;PMS5003;24231;52.514;13.438;2023-06-22T03:11:13;15;14;
38451;PMS5003;24231;52.514;13.438;2023-06-22T03:13:40;15;13;
38451;PMS5003;24231;52.514;13.438;2023-06-22T03:16:07;25;21;
38451;PMS5003;24231;52.514;13.438;2023-06-22T03:18:34;17;14;
38451;PMS5003;24231;52.514;13.438;2023-06-22T03:21:02;15;15;
38451;PMS5003;24231;52.514;13.438;2023-06-22T03:23:29;12;10;
38451;PMS5003;24231;52.514;13.438;2023-06-22T03:25:56;16;14;
38451;PMS5003;24231;52.514;13.438;2023-06-22T03:28:23;10;10;
38451;PMS5003;24231;52.514;13.438;2023-06-22T03:30:50;13;12;
38451;PMS5003;24231;52.514;13.438;2023-06-22T03:33:18;8;8;
38451;PMS5003;24231;52.514;13.438;2023-06-22T03:35:45;8;8;
38451;PMS5003;24231;52.514;13.438;2023-06-22T03:38:12;7;7;
38451;PMS5003;24231;52.514;13.438;2023-06-22T03:40:39;11;10;
38451;PMS5003;24231;52.514;13.438;2023-06-22T03:43:07;10;10;
38451;PMS5003;24231;52.514;13.438;2023-06-22T03:45:34;10;9;
38451;PMS5003;24231;52.514;13.438;2023-06-22T03:48:01;10;8;
38451;PMS5003;24231;52.514;13.438;2023-06-22T03:50:29;12;11;
38451;PMS5003;24231;52.514;13.438;2023-06-22T03:52:56;8;8;
38451;PMS5003;24231;52.514;13.438;2023-06-22T03:55:23;8;7;
38451;PMS5003;24231;52.514;13.438;2023-06-22T03:57:49;10;10;
38451;PMS5003;24231;52.514;13.438;2023-06-22T04:00:17;12;8;
38451;PMS5003;24231;52.514;13.438;2023-06-22T04:02:44;12;11;
38451;PMS5003;24231;52.514;13.438;2023-06-22T04:05:12;10;10;
38451;PMS5003;24231;52.514;13.438;2023-06-22T04:07:39;7;6;
38451;PMS5003;24231;52.514;13.438;2023-06-22T04:10:07;10;10;
38451;PMS5003;24231;52.514;13.438;2023-06-22T04:12:34;8;8;
38451;PMS5003;24231;52.514;13.438;2023-06-22T04:15:02;7;7;
38451;PMS5003;24231;52.514;13.438;2023-06-22T04:17:29;7;7;
38451;PMS5003;24231;52.514;13.438;2023-06-22T04:19:57;3;3;
38451;PMS5003;24231;52.514;13.438;2023-06-22T04:22:24;10;6;
38451;PMS5003;24231;52.514;13.438;2023-06-22T04:24:51;8;8;
38451;PMS5003;24231;52.514;13.438;2023-06-22T04:27:18;9;8;
38451;PMS5003;24231;52.514;13.438;2023-06-22T04:29:45;6;6;
38451;PMS5003;24231;52.514;13.438;2023-06-22T04:32:12;4;4;
38451;PMS5003;24231;52.514;13.438;2023-06-22T04:34:39;9;8;
38451;PMS5003;24231;52.514;13.438;2023-06-22T04:37:07;6;6;
38451;PMS5003;24231;52.514;13.438;2023-06-22T04:39:34;7;5;
38451;PMS5003;24231;52.514;13.438;2023-06-22T04:42:01;3;3;
38451;PMS5003;24231;52.514;13.438;2023-06-22T04:44:27;7;7;
38451;PMS5003;24231;52.514;13.438;2023-06-22T04:46:55;5;5;
38451;PMS5003;24231;52.514;13.438;2023-06-22T04:49:23;4;4;
38451;PMS5003;24231;52.514;13.438;2023-06-22T04:51:51;6;6;
38451;PMS5003;24231;52.514;13.438;2023-06-22T04:54:18;7;4;
38451;PMS5003;24231;52.514;13.438;2023-06-22T04:56:45;5;5;
38451;PMS5003;24231;52.514;13.438;2023-06-22T04:59:13;3;3;
38451;PMS5003;24231;52.514;13.438;2023-06-22T05:01:41;4;3;
38451;PMS5003;24231;52.514;13.438;2023-06-22T05:04:09;4;4;
38451;PMS5003;24231;52.514;13.438;2023-06-22T05:06:36;4;4;
38451;PMS5003;24231;52.514;13.438;2023-06-22T05:09:04;8;7;
38451;PMS5003;24231;52.514;13.438;2023-06-22T05:11:31;5;4;
38451;PMS5003;24231;52.514;13.438;2023-06-22T05:13:59;5;5;
38451;PMS5003;24231;52.514;13.438;2023-06-22T05:16:26;6;6;
38451;PMS5003;24231;52.514;13.438;2023-06-22T05:18:53;5;5;
38451;PMS5003;24231;52.514;13.438;2023-06-22T05:21:21;6;6;
38451;PMS5003;24231;52.514;13.438;2023-06-22T05:23:50;5;5;
38451;PMS5003;24231;52.514;13.438;2023-06-22T05:26:17;5;5;
38451;PMS5003;24231;52.514;13.438;2023-06-22T05:28:45;8;7;
38451;PMS5003;24231;52.514;13.438;2023-06-22T05:31:13;6;6;
38451;PMS5003;24231;52.514;13.438;2023-06-22T05:33:40;8;7;
38451;PMS5003;24231;52.514;13.438;2023-06-22T05:36:08;7;7;
38451;PMS5003;24231;52.514;13.438;2023-06-22T05:39:12;7;7;
38451;PMS5003;24231;52.514;13.438;2023-06-22T05:41:41;6;6;
38451;PMS5003;24231;52.514;13.438;2023-06-22T05:44:08;6;5;
38451;PMS5003;24231;52.514;13.438;2023-06-22T05:46:36;5;5;
38451;PMS5003;24231;52.514;13.438;2023-06-22T05:49:03;6;5;
38451;PMS5003;24231;52.514;13.438;2023-06-22T05:51:30;6;6;
38451;PMS5003;24231;52.514;13.438;2023-06-22T05:53:57;10;7;
38451;PMS5003;24231;52.514;13.438;2023-06-22T05:56:24;7;5;
38451;PMS5003;24231;52.514;13.438;2023-06-22T05:58:51;8;7;
38451;PMS5003;24231;52.514;13.438;2023-06-22T06:01:17;7;4;
38451;PMS5003;24231;52.514;13.438;2023-06-22T06:03:44;4;4;
38451;PMS5003;24231;52.514;13.438;2023-06-22T06:06:11;6;6;
38451;PMS5003;24231;52.514;13.438;2023-06-22T06:08:39;4;4;
38451;PMS5003;24231;52.514;13.438;2023-06-22T06:11:06;11;10;
38451;PMS5003;24231;52.514;13.438;2023-06-22T06:13:33;7;5;
38451;PMS5003;24231;52.514;13.438;2023-06-22T06:16:00;5;5;
38451;PMS5003;24231;52.514;13.438;2023-06-22T06:18:28;9;9;
38451;PMS5003;24231;52.514;13.438;2023-06-22T06:20:55;5;3;
38451;PMS5003;24231;52.514;13.438;2023-06-22T06:23:23;3;3;
38451;PMS5003;24231;52.514;13.438;2023-06-22T06:25:49;6;6;
38451;PMS5003;24231;52.514;13.438;2023-06-22T06:28:16;5;3;
38451;PMS5003;24231;52.514;13.438;2023-06-22T06:30:44;3;3;
38451;PMS5003;24231;52.514;13.438;2023-06-22T06:33:12;9;6;
38451;PMS5003;24231;52.514;13.438;2023-06-22T06:35:39;7;7;
38451;PMS5003;24231;52.514;13.438;2023-06-22T06:38:06;3;3;
38451;PMS5003;24231;52.514;13.438;2023-06-22T06:40:34;5;5;
38451;PMS5003;24231;52.514;13.438;2023-06-22T06:43:01;2;2;
38451;PMS5003;24231;52.514;13.438;2023-06-22T06:45:29;3;3;
38451;PMS5003;24231;52.514;13.438;2023-06-22T06:47:56;6;4;
38451;PMS5003;24231;52.514;13.438;2023-06-22T06:50:24;5;5;
38451;PMS5003;24231;52.514;13.438;2023-06-22T06:52:51;4;4;
38451;PMS5003;24231;52.514;13.438;2023-06-22T06:55:19;4;2;
38451;PMS5003;24231;52.514;13.438;2023-06-22T06:57:46;2;2;
38451;PMS5003;24231;52.514;13.438;2023-06-22T07:00:14;4;3;
38451;PMS5003;24231;52.514;13.438;2023-06-22T07:02:43;5;5;
38451;PMS5003;24231;52.514;13.438;2023-06-22T07:05:11;5;4;
38451;PMS5003;24231;52.514;13.438;2023-06-22T07:07:39;5;4;
38451;PMS5003;24231;52.514;13.438;2023-06-22T07:10:06;3;3;
38451;PMS5003;24231;52.514;13.438;2023-06-22T07:12:34;2;2;
38451;PMS5003;24231;52.514;13.438;2023-06-22T07:15:02;3;3;
38451;PMS5003;24231;52.514;13.438;2023-06-22T07:17:30;5;4;
38451;PMS5003;24231;52.514;13.438;2023-06-22T07:19:58;3;1;
38451;PMS5003;24231;52.514;13.438;2023-06-22T07:22:25;0;0;
38451;PMS5003;24231;52.514;13.438;2023-06-22T07:24:53;3;3;
38451;PMS5003;24231;52.514;13.438;2023-06-22T07:27:20;3;2;
38451;PMS5003;24231;52.514;13.438;2023-06-22T07:29:47;3;3;
38451;PMS5003;24231;52.514;13.438;2023-06-22T07:32:15;3;3;
38451;PMS5003;24231;52.514;13.438;2023-06-22T07:34:42;2;2;
38451;PMS5003;24231;52.514;13.438;2023-06-22T07:37:10;4;3;
38451;PMS5003;24231;52.514;13.438;2023-06-22T07:39:37;4;4;
38451;PMS5003;24231;52.514;13.438;2023-06-22T07:42:05;3;3;
38451;PMS5003;24231;52.514;13.438;2023-06-22T07:44:32;6;2;
38451;PMS5003;24231;52.514;13.438;2023-06-22T07:46:59;2;2;
38451;PMS5003;24231;52.514;13.438;2023-06-22T07:49:27;4;4;
38451;PMS5003;24231;52.514;13.438;2023-06-22T07:51:54;4;4;
38451;PMS5003;24231;52.514;13.438;2023-06-22T07:54:22;3;3;
38451;PMS5003;24231;52.514;13.438;2023-06-22T07:56:49;2;2;
38451;PMS5003;24231;52.514;13.438;2023-06-22T07:59:17;2;2;
38451;PMS5003;24231;52.514;13.438;2023-06-22T08:01:44;1;1;
38451;PMS5003;24231;52.514;13.438;2023-06-22T08:04:12;4;2;
38451;PMS5003;24231;52.514;13.438;2023-06-22T08:06:42;2;2;
38451;PMS5003;24231;52.514;13.438;2023-06-22T08:09:14;3;3;
38451;PMS5003;24231;52.514;13.438;2023-06-22T08:11:42;2;2;
38451;PMS5003;24231;52.514;13.438;2023-06-22T08:14:10;5;5;
38451;PMS5003;24231;52.514;13.438;2023-06-22T08:16:38;1;1;
38451;PMS5003;24231;52.514;13.438;2023-06-22T08:19:05;1;1;
38451;PMS5003;24231;52.514;13.438;2023-06-22T08:21:33;1;1;
38451;PMS5003;24231;52.514;13.438;2023-06-22T08:24:05;3;3;
38451;PMS5003;24231;52.514;13.438;2023-06-22T08:26:33;2;2;
38451;PMS5003;24231;52.514;13.438;2023-06-22T08:29:00;3;2;
38451;PMS5003;24231;52.514;13.438;2023-06-22T08:31:28;1;1;
38451;PMS5003;24231;52.514;13.438;2023-06-22T08:33:55;1;1;
38451;PMS5003;24231;52.514;13.438;2023-06-22T08:37:12;3;1;
38451;PMS5003;24231;52.514;13.438;2023-06-22T08:39:40;1;1;
38451;PMS5003;24231;52.514;13.438;2023-06-22T08:42:06;3;3;
38451;PMS5003;24231;52.514;13.438;2023-06-22T08:44:34;1;1;
38451;PMS5003;24231;52.514;13.438;2023-06-22T08:47:00;4;4;
38451;PMS5003;24231;52.514;13.438;2023-06-22T08:49:27;3;3;
38451;PMS5003;24231;52.514;13.438;2023-06-22T08:51:55;4;4;
38451;PMS5003;24231;52.514;13.438;2023-06-22T08:54:31;6;4;
38451;PMS5003;24231;52.514;13.438;2023-06-22T08:56:58;2;2;
38451;PMS5003;24231;52.514;13.438;2023-06-22T08:59:25;4;3;
38451;PMS5003;24231;52.514;13.438;2023-06-22T09:01:53;4;2;
38451;PMS5003;24231;52.514;13.438;2023-06-22T09:04:19;3;3;
38451;PMS5003;24231;52.514;13.438;2023-06-22T09:06:47;4;2;
38451;PMS5003;24231;52.514;13.438;2023-06-22T09:09:15;2;2;
38451;PMS5003;24231;52.514;13.438;2023-06-22T09:11:42;4;3;
38451;PMS5003;24231;52.514;13.438;2023-06-22T09:14:10;3;3;
38451;PMS5003;24231;52.514;13.438;2023-06-22T09:16:38;5;4;
38451;PMS5003;24231;52.514;13.438;2023-06-22T09:19:05;5;5;
38451;PMS5003;24231;52.514;13.438;2023-06-22T09:21:32;3;3;
38451;PMS5003;24231;52.514;13.438;2023-06-22T09:24:00;2;2;
38451;PMS5003;24231;52.514;13.438;2023-06-22T09:26:27;1;1;
38451;PMS5003;24231;52.514;13.438;2023-06-22T09:28:55;4;3;
38451;PMS5003;24231;52.514;13.438;2023-06-22T09:31:22;2;2;
38451;PMS5003;24231;52.514;13.438;2023-06-22T09:33:50;2;2;
38451;PMS5003;24231;52.514;13.438;2023-06-22T09:36:17;2;2;
38451;PMS5003;24231;52.514;13.438;2023-06-22T09:38:47;2;2;
38451;PMS5003;24231;52.514;13.438;2023-06-22T09:41:15;4;4;
38451;PMS5003;24231;52.514;13.438;2023-06-22T09:43:43;2;2;
38451;PMS5003;24231;52.514;13.438;2023-06-22T09:46:11;3;3;
38451;PMS5003;24231;52.514;13.438;2023-06-22T09:48:38;5;5;
38451;PMS5003;24231;52.514;13.438;2023-06-22T09:51:05;2;2;
38451;PMS5003;24231;52.514;13.438;2023-06-22T09:53:33;4;4;
38451;PMS5003;24231;52.514;13.438;2023-06-22T09:56:00;3;3;
38451;PMS5003;24231;52.514;13.438;2023-06-22T09:58:28;5;5;
38451;PMS5003;24231;52.514;13.438;2023-06-22T10:00:55;4;4;
38451;PMS5003;24231;52.514;13.438;2023-06-22T10:03:23;3;3;
38451;PMS5003;24231;52.514;13.438;2023-06-22T10:05:50;4;4;
38451;PMS5003;24231;52.514;13.438;2023-06-22T10:09:25;6;6;
38451;PMS5003;24231;52.514;13.438;2023-06-22T10:11:52;2;1;
38451;PMS5003;24231;52.514;13.438;2023-06-22T10:14:20;3;3;
38451;PMS5003;24231;52.514;13.438;2023-06-22T10:16:48;4;3;
38451;PMS5003;24231;52.514;13.438;2023-06-22T10:19:15;4;3;
38451;PMS5003;24231;52.514;13.438;2023-06-22T10:21:42;3;3;
38451;PMS5003;24231;52.514;13.438;2023-06-22T10:24:10;5;4;
38451;PMS5003;24231;52.514;13.438;2023-06-22T10:26:37;1;1;
38451;PMS5003;24231;52.514;13.438;2023-06-22T10:29:04;2;2;
38451;PMS5003;24231;52.514;13.438;2023-06-22T10:31:32;5;2;
38451;PMS5003;24231;52.514;13.438;2023-06-22T10:34:25;3;3;
38451;PMS5003;24231;52.514;13.438;2023-06-22T10:36:52;3;1;
38451;PMS5003;24231;52.514;13.438;2023-06-22T10:39:20;6;5;
38451;PMS5003;24231;52.514;13.438;2023-06-22T10:41:47;3;3;
38451;PMS5003;24231;52.514;13.438;2023-06-22T10:44:14;3;3;
38451;PMS5003;24231;52.514;13.438;2023-06-22T10:46:42;5;5;
38451;PMS5003;24231;52.514;13.438;2023-06-22T10:49:09;3;3;
38451;PMS5003;24231;52.514;13.438;2023-06-22T10:51:37;5;3;
38451;PMS5003;24231;52.514;13.438;2023-06-22T10:54:04;3;3;
38451;PMS5003;24231;52.514;13.438;2023-06-22T10:56:32;5;5;
38451;PMS5003;24231;52.514;13.438;2023-06-22T10:58:59;4;2;
38451;PMS5003;24231;52.514;13.438;2023-06-22T11:01:27;3;3;
38451;PMS5003;24231;52.514;13.438;2023-06-22T11:03:54;5;3;
38451;PMS5003;24231;52.514;13.438;2023-06-22T11:06:22;3;3;
38451;PMS5003;24231;52.514;13.438;2023-06-22T11:08:49;3;3;
38451;PMS5003;24231;52.514;13.438;2023-06-22T11:11:17;4;4;
38451;PMS5003;24231;52.514;13.438;2023-06-22T11:13:44;6;6;
38451;PMS5003;24231;52.514;13.438;2023-06-22T11:16:12;4;4;
38451;PMS5003;24231;52.514;13.438;2023-06-22T11:18:39;2;2;
38451;PMS5003;24231;52.514;13.438;2023-06-22T11:21:07;4;3;
38451;PMS5003;24231;52.514;13.438;2023-06-22T11:23:34;3;3;
38451;PMS5003;24231;52.514;13.438;2023-06-22T11:26:02;3;3;
38451;PMS5003;24231;52.514;13.438;2023-06-22T11:28:29;4;4;
38451;PMS5003;24231;52.514;13.438;2023-06-22T11:32:17;7;7;
38451;PMS5003;24231;52.514;13.438;2023-06-22T11:34:44;6;6;
38451;PMS5003;24231;52.514;13.438;2023-06-22T11:37:11;4;4;
38451;PMS5003;24231;52.514;13.438;2023-06-22T11:39:41;7;5;
38451;PMS5003;24231;52.514;13.438;2023-06-22T11:42:08;4;4;
38451;PMS5003;24231;52.514;13.438;2023-06-22T11:44:36;2;2;
38451;PMS5003;24231;52.514;13.438;2023-06-22T11:47:03;2;2;
38451;PMS5003;24231;52.514;13.438;2023-06-22T11:49:31;2;2;
38451;PMS5003;24231;52.514;13.438;2023-06-22T11:51:58;5;4;
38451;PMS5003;24231;52.514;13.438;2023-06-22T11:54:26;5;5;
38451;PMS5003;24231;52.514;13.438;2023-06-22T11:56:53;5;5;
38451;PMS5003;24231;52.514;13.438;2023-06-22T11:59:21;7;3;
38451;PMS5003;24231;52.514;13.438;2023-06-22T12:01:47;2;2;
38451;PMS5003;24231;52.514;13.438;2023-06-22T12:04:15;4;4;
38451;PMS5003;24231;52.514;13.438;2023-06-22T12:06:42;5;4;
38451;PMS5003;24231;52.514;13.438;2023-06-22T12:09:10;3;3;
38451;PMS5003;24231;52.514;13.438;2023-06-22T12:11:37;3;3;
38451;PMS5003;24231;52.514;13.438;2023-06-22T12:14:34;7;7;
38451;PMS5003;24231;52.514;13.438;2023-06-22T12:17:02;5;3;
38451;PMS5003;24231;52.514;13.438;2023-06-22T12:19:29;3;3;
38451;PMS5003;24231;52.514;13.438;2023-06-22T12:21:57;7;5;
38451;PMS5003;24231;52.514;13.438;2023-06-22T12:24:24;5;5;
38451;PMS5003;24231;52.514;13.438;2023-06-22T12:26:51;5;5;
38451;PMS5003;24231;52.514;13.438;2023-06-22T12:29:19;3;3;
38451;PMS5003;24231;52.514;13.438;2023-06-22T12:31:46;4;4;
38451;PMS5003;24231;52.514;13.438;2023-06-22T12:34:13;5;5;
38451;PMS5003;24231;52.514;13.438;2023-06-22T12:36:39;4;4;
38451;PMS5003;24231;52.514;13.438;2023-06-22T12:39:07;6;5;
38451;PMS5003;24231;52.514;13.438;2023-06-22T12:41:34;4;4;
38451;PMS5003;24231;52.514;13.438;2023-06-22T12:44:00;4;4;
38451;PMS5003;24231;52.514;13.438;2023-06-22T12:46:28;2;2;
38451;PMS5003;24231;52.514;13.438;2023-06-22T12:48:55;5;4;
38451;PMS5003;24231;52.514;13.438;2023-06-22T12:51:23;5;5;
38451;PMS5003;24231;52.514;13.438;2023-06-22T12:53:50;4;4;
38451;PMS5003;24231;52.514;13.438;2023-06-22T12:56:17;7;6;
38451;PMS5003;24231;52.514;13.438;2023-06-22T12:58:45;7;4;
38451;PMS5003;24231;52.514;13.438;2023-06-22T13:01:17;3;3;
38451;PMS5003;24231;52.514;13.438;2023-06-22T13:03:45;5;5;
38451;PMS5003;24231;52.514;13.438;2023-06-22T13:06:11;6;6;
38451;PMS5003;24231;52.514;13.438;2023-06-22T13:08:38;4;4;
38451;PMS5003;24231;52.514;13.438;2023-06-22T13:11:06;6;5;
38451;PMS5003;24231;52.514;13.438;2023-06-22T13:13:32;5;5;
38451;PMS5003;24231;52.514;13.438;2023-06-22T13:16:00;5;5;
38451;PMS5003;24231;52.514;13.438;2023-06-22T13:18:27;6;5;
38451;PMS5003;24231;52.514;13.438;2023-06-22T13:20:55;11;7;
38451;PMS5003;24231;52.514;13.438;2023-06-22T13:23:22;8;7;
38451;PMS5003;24231;52.514;13.438;2023-06-22T13:25:50;6;6;
38451;PMS5003;24231;52.514;13.438;2023-06-22T13:28:17;9;7;
38451;PMS5003;24231;52.514;13.438;2023-06-22T13:30:45;7;7;
38451;PMS5003;24231;52.514;13.438;2023-06-22T13:33:12;9;8;
38451;PMS5003;24231;52.514;13.438;2023-06-22T13:35:40;8;7;
38451;PMS5003;24231;52.514;13.438;2023-06-22T13:38:07;9;6;
38451;PMS5003;24231;52.514;13.438;2023-06-22T13:40:34;5;5;
38451;PMS5003;24231;52.514;13.438;2023-06-22T13:43:01;6;4;
38451;PMS5003;24231;52.514;13.438;2023-06-22T13:45:29;5;5;
38451;PMS5003;24231;52.514;13.438;2023-06-22T13:47:56;8;6;
38451;PMS5003;24231;52.514;13.438;2023-06-22T13:50:24;7;7;
38451;PMS5003;24231;52.514;13.438;2023-06-22T13:52:57;5;4;
38451;PMS5003;24231;52.514;13.438;2023-06-22T13:55:24;5;5;
38451;PMS5003;24231;52.514;13.438;2023-06-22T13:57:51;7;5;
38451;PMS5003;24231;52.514;13.438;2023-06-22T14:00:19;3;3;
38451;PMS5003;24231;52.514;13.438;2023-06-22T14:02:46;8;7;
38451;PMS5003;24231;52.514;13.438;2023-06-22T14:05:21;8;6;
38451;PMS5003;24231;52.514;13.438;2023-06-22T14:07:50;5;5;
38451;PMS5003;24231;52.514;13.438;2023-06-22T14:10:18;5;5;
38451;PMS5003;24231;52.514;13.438;2023-06-22T14:12:49;7;5;
38451;PMS5003;24231;52.514;13.438;2023-06-22T14:15:16;3;3;
38451;PMS5003;24231;52.514;13.438;2023-06-22T14:17:44;5;5;
38451;PMS5003;24231;52.514;13.438;2023-06-22T14:20:10;9;5;
38451;PMS5003;24231;52.514;13.438;2023-06-22T14:22:38;5;5;
38451;PMS5003;24231;52.514;13.438;2023-06-22T14:25:05;2;2;
38451;PMS5003;24231;52.514;13.438;2023-06-22T14:27:33;6;5;
38451;PMS5003;24231;52.514;13.438;2023-06-22T14:30:00;6;4;
38451;PMS5003;24231;52.514;13.438;2023-06-22T14:32:28;9;5;
38451;PMS5003;24231;52.514;13.438;2023-06-22T14:34:55;3;3;
38451;PMS5003;24231;52.514;13.438;2023-06-22T14:37:23;6;4;
38451;PMS5003;24231;52.514;13.438;2023-06-22T14:39:50;5;5;
38451;PMS5003;24231;52.514;13.438;2023-06-22T14:42:18;5;5;
38451;PMS5003;24231;52.514;13.438;2023-06-22T14:44:45;6;6;
38451;PMS5003;24231;52.514;13.438;2023-06-22T14:47:14;4;4;
38451;PMS5003;24231;52.514;13.438;2023-06-22T14:49:41;3;3;
38451;PMS5003;24231;52.514;13.438;2023-06-22T14:52:08;6;5;
38451;PMS5003;24231;52.514;13.438;2023-06-22T14:54:35;4;4;
38451;PMS5003;24231;52.514;13.438;2023-06-22T14:57:03;6;5;
38451;PMS5003;24231;52.514;13.438;2023-06-22T14:59:30;4;4;
38451;PMS5003;24231;52.514;13.438;2023-06-22T15:01:58;6;5;
38451;PMS5003;24231;52.514;13.438;2023-06-22T15:04:25;4;4;
38451;PMS5003;24231;52.514;13.438;2023-06-22T15:06:53;3;3;
38451;PMS5003;24231;52.514;13.438;2023-06-22T15:09:20;7;7;
38451;PMS5003;24231;52.514;13.438;2023-06-22T15:11:48;6;6;
38451;PMS5003;24231;52.514;13.438;2023-06-22T15:14:15;8;7;
38451;PMS5003;24231;52.514;13.438;2023-06-22T15:16:43;4;3;
38451;PMS5003;24231;52.514;13.438;2023-06-22T15:19:10;5;5;
38451;PMS5003;24231;52.514;13.438;2023-06-22T15:21:38;6;5;
38451;PMS5003;24231;52.514;13.438;2023-06-22T15:24:05;5;5;
38451;PMS5003;24231;52.514;13.438;2023-06-22T15:26:33;7;7;
38451;PMS5003;24231;52.514;13.438;2023-06-22T15:29:00;7;6;
38451;PMS5003;24231;52.514;13.438;2023-06-22T15:31:28;5;5;
38451;PMS5003;24231;52.514;13.438;2023-06-22T15:33:55;2;2;
38451;PMS5003;24231;52.514;13.438;2023-06-22T15:36:23;5;5;
38451;PMS5003;24231;52.514;13.438;2023-06-22T15:38:50;6;5;
38451;PMS5003;24231;52.514;13.438;2023-06-22T15:41:17;6;6;
38451;PMS5003;24231;52.514;13.438;2023-06-22T15:43:44;5;5;
38451;PMS5003;24231;52.514;13.438;2023-06-22T15:46:10;9;6;
38451;PMS5003;24231;52.514;13.438;2023-06-22T15:48:38;4;4;
38451;PMS5003;24231;52.514;13.438;2023-06-22T15:51:05;5;5;
38451;PMS5003;24231;52.514;13.438;2023-06-22T15:53:32;5;5;
38451;PMS5003;24231;52.514;13.438;2023-06-22T15:55:59;7;6;
38451;PMS5003;24231;52.514;13.438;2023-06-22T15:58:27;6;6;
38451;PMS5003;24231;52.514;13.438;2023-06-22T16:00:54;8;7;
38451;PMS5003;24231;52.514;13.438;2023-06-22T16:03:20;7;6;
38451;PMS5003;24231;52.514;13.438;2023-06-22T16:05:48;7;5;
38451;PMS5003;24231;52.514;13.438;2023-06-22T16:08:15;6;6;
38451;PMS5003;24231;52.514;13.438;2023-06-22T16:10:42;4;4;
38451;PMS5003;24231;52.514;13.438;2023-06-22T16:13:09;6;6;
38451;PMS5003;24231;52.514;13.438;2023-06-22T16:15:37;6;6;
38451;PMS5003;24231;52.514;13.438;2023-06-22T16:18:04;6;6;
38451;PMS5003;24231;52.514;13.438;2023-06-22T16:20:31;5;5;
38451;PMS5003;24231;52.514;13.438;2023-06-22T16:22:59;8;8;
38451;PMS5003;24231;52.514;13.438;2023-06-22T16:25:26;10;7;
38451;PMS5003;24231;52.514;13.438;2023-06-22T16:27:54;6;5;
38451;PMS5003;24231;52.514;13.438;2023-06-22T16:30:22;8;6;
38451;PMS5003;24231;52.514;13.438;2023-06-22T16:32:51;6;5;
38451;PMS5003;24231;52.514;13.438;2023-06-22T16:35:19;7;7;